sensor_id;sensor_type;location;lat;lon;timestamp;P1;durP1;ratioP1;P2;durP2;ratioP2
74656;SDS011;63185;45.642;13.764;2024-01-16T00:00:11;5.03;;;2.92;;
74656;SDS011;63185;45.642;13.764;2024-01-16T00:02:37;5.72;;;2.92;;
74656;SDS011;63185;45.642;13.764;2024-01-16T00:05:03;6.35;;;2.83;;
74656;SDS011;63185;45.642;13.764;2024-01-16T00:07:29;5.65;;;2.83;;
74656;SDS011;63185;45.642;13.764;2024-01-16T00:09:57;5.30;;;2.90;;
74656;SDS011;63185;45.642;13.764;2024-01-16T00:12:23;7.43;;;2.97;;
74656;SDS011;63185;45.642;13.764;2024-01-16T00:14:49;7.95;;;3.50;;
74656;SDS011;63185;45.642;13.764;2024-01-16T00:17:14;5.35;;;3.00;;
74656;SDS011;63185;45.642;13.764;2024-01-16T00:19:40;4.93;;;3.10;;
74656;SDS011;63185;45.642;13.764;2024-01-16T00:22:06;5.80;;;3.33;;
74656;SDS011;63185;45.642;13.764;2024-01-16T00:24:32;7.20;;;3.20;;
74656;SDS011;63185;45.642;13.764;2024-01-16T00:26:58;7.32;;;3.33;;
74656;SDS011;63185;45.642;13.764;2024-01-16T00:29:23;5.90;;;3.03;;
74656;SDS011;63185;45.642;13.764;2024-01-16T00:31:50;8.18;;;3.30;;
74656;SDS011;63185;45.642;13.764;2024-01-16T00:34:15;5.78;;;3.22;;
74656;SDS011;63185;45.642;13.764;2024-01-16T00:36:41;6.18;;;2.97;;
74656;SDS011;63185;45.642;13.764;2024-01-16T00:39:07;3.80;;;2.30;;
74656;SDS011;63185;45.642;13.764;2024-01-16T00:41:33;6.32;;;2.40;;
74656;SDS011;63185;45.642;13.764;2024-01-16T00:43:59;6.30;;;2.17;;
74656;SDS011;63185;45.642;13.764;2024-01-16T00:46:24;3.35;;;1.88;;
74656;SDS011;63185;45.642;13.764;2024-01-16T00:48:50;4.03;;;2.20;;
74656;SDS011;63185;45.642;13.764;2024-01-16T00:51:16;4.28;;;2.10;;
74656;SDS011;63185;45.642;13.764;2024-01-16T00:53:41;3.28;;;1.98;;
74656;SDS011;63185;45.642;13.764;2024-01-16T00:56:08;3.05;;;1.80;;
74656;SDS011;63185;45.642;13.764;2024-01-16T00:58:33;4.40;;;2.50;;
74656;SDS011;63185;45.642;13.764;2024-01-16T01:00:59;3.70;;;2.20;;
74656;SDS011;63185;45.642;13.764;2024-01-16T01:03:25;4.78;;;2.38;;
74656;SDS011;63185;45.642;13.764;2024-01-16T01:05:51;3.75;;;1.88;;
74656;SDS011;63185;45.642;13.764;2024-01-16T01:08:17;4.10;;;2.10;;
74656;SDS011;63185;45.642;13.764;2024-01-16T01:10:42;3.92;;;1.77;;
74656;SDS011;63185;45.642;13.764;2024-01-16T01:13:08;3.20;;;1.40;;
74656;SDS011;63185;45.642;13.764;2024-01-16T01:15:34;3.38;;;1.60;;
74656;SDS011;63185;45.642;13.764;2024-01-16T01:18:05;2.53;;;1.50;;
74656;SDS011;63185;45.642;13.764;2024-01-16T01:20:31;3.33;;;1.60;;
74656;SDS011;63185;45.642;13.764;2024-01-16T01:22:57;3.17;;;1.30;;
74656;SDS011;63185;45.642;13.764;2024-01-16T01:25:23;2.75;;;1.42;;
74656;SDS011;63185;45.642;13.764;2024-01-16T01:27:51;2.30;;;1.20;;
74656;SDS011;63185;45.642;13.764;2024-01-16T01:30:17;2.42;;;1.27;;
74656;SDS011;63185;45.642;13.764;2024-01-16T01:32:43;2.63;;;1.10;;
74656;SDS011;63185;45.642;13.764;2024-01-16T01:35:09;2.38;;;1.20;;
74656;SDS011;63185;45.642;13.764;2024-01-16T01:37:36;3.92;;;1.30;;
74656;SDS011;63185;45.642;13.764;2024-01-16T01:40:02;2.03;;;1.23;;
74656;SDS011;63185;45.642;13.764;2024-01-16T01:42:28;3.22;;;1.00;;
74656;SDS011;63185;45.642;13.764;2024-01-16T01:44:54;2.42;;;1.30;;
74656;SDS011;63185;45.642;13.764;2024-01-16T01:47:20;1.88;;;0.95;;
74656;SDS011;63185;45.642;13.764;2024-01-16T01:49:46;2.88;;;1.00;;
74656;SDS011;63185;45.642;13.764;2024-01-16T01:52:11;2.33;;;0.93;;
74656;SDS011;63185;45.642;13.764;2024-01-16T01:54:37;2.25;;;1.05;;
74656;SDS011;63185;45.642;13.764;2024-01-16T01:57:04;2.67;;;1.00;;
74656;SDS011;63185;45.642;13.764;2024-01-16T01:59:32;1.52;;;0.85;;
74656;SDS011;63185;45.642;13.764;2024-01-16T02:01:58;1.73;;;1.00;;
74656;SDS011;63185;45.642;13.764;2024-01-16T02:04:24;1.33;;;0.82;;
74656;SDS011;63185;45.642;13.764;2024-01-16T02:06:51;1.88;;;1.00;;
74656;SDS011;63185;45.642;13.764;2024-01-16T02:09:17;1.77;;;0.98;;
74656;SDS011;63185;45.642;13.764;2024-01-16T02:11:42;3.40;;;1.10;;
74656;SDS011;63185;45.642;13.764;2024-01-16T02:14:08;1.65;;;0.93;;
74656;SDS011;63185;45.642;13.764;2024-01-16T02:16:38;2.30;;;1.10;;
74656;SDS011;63185;45.642;13.764;2024-01-16T02:19:05;1.40;;;0.85;;
74656;SDS011;63185;45.642;13.764;2024-01-16T02:21:35;2.47;;;1.10;;
74656;SDS011;63185;45.642;13.764;2024-01-16T02:24:05;1.67;;;0.88;;
74656;SDS011;63185;45.642;13.764;2024-01-16T02:26:31;2.80;;;1.30;;
74656;SDS011;63185;45.642;13.764;2024-01-16T02:28:58;2.10;;;1.05;;
74656;SDS011;63185;45.642;13.764;2024-01-16T02:31:25;2.60;;;1.15;;
74656;SDS011;63185;45.642;13.764;2024-01-16T02:33:51;1.80;;;1.10;;
74656;SDS011;63185;45.642;13.764;2024-01-16T02:36:17;2.20;;;1.10;;
74656;SDS011;63185;45.642;13.764;2024-01-16T02:38:43;2.22;;;1.20;;
74656;SDS011;63185;45.642;13.764;2024-01-16T02:41:09;2.70;;;1.20;;
74656;SDS011;63185;45.642;13.764;2024-01-16T02:43:36;3.40;;;1.10;;
74656;SDS011;63185;45.642;13.764;2024-01-16T02:46:02;2.15;;;1.10;;
74656;SDS011;63185;45.642;13.764;2024-01-16T02:48:28;3.30;;;1.25;;
74656;SDS011;63185;45.642;13.764;2024-01-16T02:50:54;2.30;;;1.10;;
74656;SDS011;63185;45.642;13.764;2024-01-16T02:53:20;2.42;;;1.20;;
74656;SDS011;63185;45.642;13.764;2024-01-16T02:55:45;2.85;;;1.30;;
74656;SDS011;63185;45.642;13.764;2024-01-16T02:58:11;2.45;;;1.20;;
74656;SDS011;63185;45.642;13.764;2024-01-16T03:00:37;2.17;;;1.13;;
74656;SDS011;63185;45.642;13.764;2024-01-16T03:03:02;3.10;;;1.02;;
74656;SDS011;63185;45.642;13.764;2024-01-16T03:05:28;3.10;;;1.13;;
74656;SDS011;63185;45.642;13.764;2024-01-16T03:07:54;2.42;;;1.23;;
74656;SDS011;63185;45.642;13.764;2024-01-16T03:10:20;2.33;;;1.20;;
74656;SDS011;63185;45.642;13.764;2024-01-16T03:12:45;2.15;;;1.40;;
74656;SDS011;63185;45.642;13.764;2024-01-16T03:15:11;2.65;;;1.40;;
74656;SDS011;63185;45.642;13.764;2024-01-16T03:17:37;2.33;;;1.40;;
74656;SDS011;63185;45.642;13.764;2024-01-16T03:20:02;3.00;;;1.50;;
74656;SDS011;63185;45.642;13.764;2024-01-16T03:22:28;2.60;;;1.20;;
74656;SDS011;63185;45.642;13.764;2024-01-16T03:24:54;3.83;;;1.60;;
74656;SDS011;63185;45.642;13.764;2024-01-16T03:27:20;3.35;;;1.67;;
74656;SDS011;63185;45.642;13.764;2024-01-16T03:29:45;4.25;;;1.67;;
74656;SDS011;63185;45.642;13.764;2024-01-16T03:32:11;3.67;;;1.80;;
74656;SDS011;63185;45.642;13.764;2024-01-16T03:34:37;3.40;;;1.80;;
74656;SDS011;63185;45.642;13.764;2024-01-16T03:37:02;4.30;;;1.42;;
74656;SDS011;63185;45.642;13.764;2024-01-16T03:39:28;4.60;;;1.42;;
74656;SDS011;63185;45.642;13.764;2024-01-16T03:41:54;3.78;;;1.67;;
74656;SDS011;63185;45.642;13.764;2024-01-16T03:44:19;3.67;;;1.70;;
74656;SDS011;63185;45.642;13.764;2024-01-16T03:46:45;3.05;;;1.70;;
74656;SDS011;63185;45.642;13.764;2024-01-16T03:49:11;4.88;;;1.80;;
74656;SDS011;63185;45.642;13.764;2024-01-16T03:51:36;3.63;;;1.63;;
74656;SDS011;63185;45.642;13.764;2024-01-16T03:54:02;3.45;;;1.52;;
74656;SDS011;63185;45.642;13.764;2024-01-16T03:56:28;3.53;;;1.75;;
74656;SDS011;63185;45.642;13.764;2024-01-16T03:58:54;4.72;;;1.90;;
74656;SDS011;63185;45.642;13.764;2024-01-16T04:01:29;3.70;;;1.60;;
74656;SDS011;63185;45.642;13.764;2024-01-16T04:03:56;3.75;;;1.40;;
74656;SDS011;63185;45.642;13.764;2024-01-16T04:06:21;2.90;;;1.80;;
74656;SDS011;63185;45.642;13.764;2024-01-16T04:08:47;4.78;;;1.42;;
74656;SDS011;63185;45.642;13.764;2024-01-16T04:11:13;5.53;;;1.70;;
74656;SDS011;63185;45.642;13.764;2024-01-16T04:13:39;2.25;;;1.27;;
74656;SDS011;63185;45.642;13.764;2024-01-16T04:16:05;3.75;;;1.48;;
74656;SDS011;63185;45.642;13.764;2024-01-16T04:18:39;4.90;;;1.92;;
74656;SDS011;63185;45.642;13.764;2024-01-16T04:21:05;3.22;;;1.50;;
74656;SDS011;63185;45.642;13.764;2024-01-16T04:23:32;2.72;;;1.38;;
74656;SDS011;63185;45.642;13.764;2024-01-16T04:25:58;2.50;;;1.27;;
74656;SDS011;63185;45.642;13.764;2024-01-16T04:28:23;2.92;;;1.65;;
74656;SDS011;63185;45.642;13.764;2024-01-16T04:30:49;2.72;;;1.38;;
74656;SDS011;63185;45.642;13.764;2024-01-16T04:33:15;4.90;;;1.50;;
74656;SDS011;63185;45.642;13.764;2024-01-16T04:35:41;2.45;;;1.33;;
74656;SDS011;63185;45.642;13.764;2024-01-16T04:38:07;2.90;;;1.50;;
74656;SDS011;63185;45.642;13.764;2024-01-16T04:40:33;3.50;;;1.35;;
74656;SDS011;63185;45.642;13.764;2024-01-16T04:42:59;4.78;;;1.50;;
74656;SDS011;63185;45.642;13.764;2024-01-16T04:45:25;4.57;;;1.40;;
74656;SDS011;63185;45.642;13.764;2024-01-16T04:47:50;4.57;;;1.65;;
74656;SDS011;63185;45.642;13.764;2024-01-16T04:50:16;7.20;;;1.63;;
74656;SDS011;63185;45.642;13.764;2024-01-16T04:52:43;2.65;;;1.40;;
74656;SDS011;63185;45.642;13.764;2024-01-16T04:55:08;2.85;;;1.10;;
74656;SDS011;63185;45.642;13.764;2024-01-16T04:57:34;2.17;;;1.20;;
74656;SDS011;63185;45.642;13.764;2024-01-16T05:00:00;2.42;;;1.17;;
74656;SDS011;63185;45.642;13.764;2024-01-16T05:02:26;3.10;;;1.30;;
74656;SDS011;63185;45.642;13.764;2024-01-16T05:04:51;2.53;;;1.35;;
74656;SDS011;63185;45.642;13.764;2024-01-16T05:07:17;3.10;;;1.30;;
74656;SDS011;63185;45.642;13.764;2024-01-16T05:09:45;2.15;;;1.10;;
74656;SDS011;63185;45.642;13.764;2024-01-16T05:12:12;2.97;;;1.30;;
74656;SDS011;63185;45.642;13.764;2024-01-16T05:14:38;1.95;;;1.08;;
74656;SDS011;63185;45.642;13.764;2024-01-16T05:17:04;2.25;;;1.13;;
74656;SDS011;63185;45.642;13.764;2024-01-16T05:19:29;2.22;;;1.10;;
74656;SDS011;63185;45.642;13.764;2024-01-16T05:21:55;2.28;;;1.30;;
74656;SDS011;63185;45.642;13.764;2024-01-16T05:24:21;3.15;;;1.60;;
74656;SDS011;63185;45.642;13.764;2024-01-16T05:26:46;2.67;;;1.20;;
74656;SDS011;63185;45.642;13.764;2024-01-16T05:29:12;3.30;;;1.40;;
74656;SDS011;63185;45.642;13.764;2024-01-16T05:31:42;2.95;;;1.30;;
74656;SDS011;63185;45.642;13.764;2024-01-16T05:34:08;2.33;;;0.90;;
74656;SDS011;63185;45.642;13.764;2024-01-16T05:36:34;3.25;;;1.30;;
74656;SDS011;63185;45.642;13.764;2024-01-16T05:39:00;2.40;;;1.10;;
74656;SDS011;63185;45.642;13.764;2024-01-16T05:41:26;3.08;;;1.10;;
74656;SDS011;63185;45.642;13.764;2024-01-16T05:43:52;2.65;;;1.40;;
74656;SDS011;63185;45.642;13.764;2024-01-16T05:46:18;2.30;;;1.20;;
74656;SDS011;63185;45.642;13.764;2024-01-16T05:48:43;3.35;;;1.27;;
74656;SDS011;63185;45.642;13.764;2024-01-16T05:51:09;4.60;;;1.15;;
74656;SDS011;63185;45.642;13.764;2024-01-16T05:53:35;3.13;;;1.40;;
74656;SDS011;63185;45.642;13.764;2024-01-16T05:56:01;2.08;;;1.02;;
74656;SDS011;63185;45.642;13.764;2024-01-16T05:58:26;2.97;;;1.35;;
74656;SDS011;63185;45.642;13.764;2024-01-16T06:00:52;2.70;;;1.20;;
74656;SDS011;63185;45.642;13.764;2024-01-16T06:03:17;3.05;;;1.33;;
74656;SDS011;63185;45.642;13.764;2024-01-16T06:05:43;2.97;;;1.25;;
74656;SDS011;63185;45.642;13.764;2024-01-16T06:08:09;2.30;;;1.17;;
74656;SDS011;63185;45.642;13.764;2024-01-16T06:10:35;2.47;;;1.25;;
74656;SDS011;63185;45.642;13.764;2024-01-16T06:13:00;3.45;;;1.30;;
74656;SDS011;63185;45.642;13.764;2024-01-16T06:15:26;4.18;;;1.30;;
74656;SDS011;63185;45.642;13.764;2024-01-16T06:17:52;3.42;;;1.52;;
74656;SDS011;63185;45.642;13.764;2024-01-16T06:20:17;2.80;;;1.27;;
74656;SDS011;63185;45.642;13.764;2024-01-16T06:22:43;4.75;;;1.80;;
74656;SDS011;63185;45.642;13.764;2024-01-16T06:25:09;3.03;;;1.20;;
74656;SDS011;63185;45.642;13.764;2024-01-16T06:27:34;2.63;;;1.25;;
74656;SDS011;63185;45.642;13.764;2024-01-16T06:30:00;2.67;;;1.15;;
74656;SDS011;63185;45.642;13.764;2024-01-16T06:32:26;4.78;;;1.27;;
74656;SDS011;63185;45.642;13.764;2024-01-16T06:34:51;7.05;;;1.50;;
74656;SDS011;63185;45.642;13.764;2024-01-16T06:37:17;4.40;;;1.13;;
74656;SDS011;63185;45.642;13.764;2024-01-16T06:39:43;3.20;;;1.50;;
74656;SDS011;63185;45.642;13.764;2024-01-16T06:42:08;4.78;;;1.52;;
74656;SDS011;63185;45.642;13.764;2024-01-16T06:44:34;4.07;;;1.65;;
74656;SDS011;63185;45.642;13.764;2024-01-16T06:47:00;9.68;;;5.07;;
74656;SDS011;63185;45.642;13.764;2024-01-16T06:49:25;5.55;;;1.50;;
74656;SDS011;63185;45.642;13.764;2024-01-16T06:51:52;6.18;;;2.80;;
74656;SDS011;63185;45.642;13.764;2024-01-16T06:54:17;8.30;;;1.60;;
74656;SDS011;63185;45.642;13.764;2024-01-16T06:56:45;8.55;;;2.13;;
74656;SDS011;63185;45.642;13.764;2024-01-16T06:59:11;5.60;;;1.70;;
74656;SDS011;63185;45.642;13.764;2024-01-16T07:01:37;6.63;;;2.22;;
74656;SDS011;63185;45.642;13.764;2024-01-16T07:04:03;4.07;;;1.55;;
74656;SDS011;63185;45.642;13.764;2024-01-16T07:06:28;3.42;;;1.30;;
74656;SDS011;63185;45.642;13.764;2024-01-16T07:08:54;3.45;;;1.65;;
74656;SDS011;63185;45.642;13.764;2024-01-16T07:11:20;3.15;;;1.30;;
74656;SDS011;63185;45.642;13.764;2024-01-16T07:13:46;4.78;;;1.58;;
74656;SDS011;63185;45.642;13.764;2024-01-16T07:16:11;6.82;;;1.60;;
74656;SDS011;63185;45.642;13.764;2024-01-16T07:18:39;5.35;;;1.42;;
74656;SDS011;63185;45.642;13.764;2024-01-16T07:21:15;4.45;;;1.50;;
74656;SDS011;63185;45.642;13.764;2024-01-16T07:23:42;4.75;;;1.38;;
74656;SDS011;63185;45.642;13.764;2024-01-16T07:26:08;4.47;;;1.40;;
74656;SDS011;63185;45.642;13.764;2024-01-16T07:28:33;6.85;;;1.70;;
74656;SDS011;63185;45.642;13.764;2024-01-16T07:30:59;4.75;;;1.27;;
74656;SDS011;63185;45.642;13.764;2024-01-16T07:33:25;5.30;;;1.40;;
74656;SDS011;63185;45.642;13.764;2024-01-16T07:35:51;2.60;;;1.30;;
74656;SDS011;63185;45.642;13.764;2024-01-16T07:38:18;4.20;;;1.50;;
74656;SDS011;63185;45.642;13.764;2024-01-16T07:40:44;3.50;;;1.58;;
74656;SDS011;63185;45.642;13.764;2024-01-16T07:43:10;9.13;;;1.75;;
74656;SDS011;63185;45.642;13.764;2024-01-16T07:45:36;11.90;;;2.75;;
74656;SDS011;63185;45.642;13.764;2024-01-16T07:48:02;5.35;;;2.33;;
74656;SDS011;63185;45.642;13.764;2024-01-16T07:50:28;3.00;;;1.38;;
74656;SDS011;63185;45.642;13.764;2024-01-16T07:52:55;7.00;;;1.95;;
74656;SDS011;63185;45.642;13.764;2024-01-16T07:55:21;4.60;;;1.60;;
74656;SDS011;63185;45.642;13.764;2024-01-16T07:57:47;6.00;;;1.80;;
74656;SDS011;63185;45.642;13.764;2024-01-16T08:00:12;6.00;;;1.92;;
74656;SDS011;63185;45.642;13.764;2024-01-16T08:02:38;7.68;;;1.50;;
74656;SDS011;63185;45.642;13.764;2024-01-16T08:05:04;3.03;;;1.33;;
74656;SDS011;63185;45.642;13.764;2024-01-16T08:07:30;4.13;;;1.90;;
74656;SDS011;63185;45.642;13.764;2024-01-16T08:09:56;4.22;;;1.67;;
74656;SDS011;63185;45.642;13.764;2024-01-16T08:12:22;3.33;;;1.30;;
74656;SDS011;63185;45.642;13.764;2024-01-16T08:14:48;7.95;;;1.40;;
74656;SDS011;63185;45.642;13.764;2024-01-16T08:17:14;3.90;;;1.27;;
74656;SDS011;63185;45.642;13.764;2024-01-16T08:19:40;2.65;;;1.30;;
74656;SDS011;63185;45.642;13.764;2024-01-16T08:22:06;3.65;;;1.50;;
74656;SDS011;63185;45.642;13.764;2024-01-16T08:24:33;1.83;;;0.90;;
74656;SDS011;63185;45.642;13.764;2024-01-16T08:26:59;4.10;;;1.23;;
74656;SDS011;63185;45.642;13.764;2024-01-16T08:29:24;5.00;;;1.40;;
74656;SDS011;63185;45.642;13.764;2024-01-16T08:31:50;2.50;;;1.10;;
74656;SDS011;63185;45.642;13.764;2024-01-16T08:34:17;2.15;;;1.10;;
74656;SDS011;63185;45.642;13.764;2024-01-16T08:36:43;3.58;;;1.70;;
74656;SDS011;63185;45.642;13.764;2024-01-16T08:39:09;4.65;;;1.63;;
74656;SDS011;63185;45.642;13.764;2024-01-16T08:41:35;2.97;;;1.25;;
74656;SDS011;63185;45.642;13.764;2024-01-16T08:44:01;3.80;;;1.63;;
74656;SDS011;63185;45.642;13.764;2024-01-16T08:46:27;11.77;;;5.13;;
74656;SDS011;63185;45.642;13.764;2024-01-16T08:48:53;6.13;;;2.63;;
74656;SDS011;63185;45.642;13.764;2024-01-16T08:51:19;3.83;;;1.10;;
74656;SDS011;63185;45.642;13.764;2024-01-16T08:53:45;3.45;;;1.50;;
74656;SDS011;63185;45.642;13.764;2024-01-16T08:56:11;4.07;;;1.30;;
74656;SDS011;63185;45.642;13.764;2024-01-16T08:58:37;2.67;;;1.30;;
74656;SDS011;63185;45.642;13.764;2024-01-16T09:01:05;2.58;;;1.17;;
74656;SDS011;63185;45.642;13.764;2024-01-16T09:03:34;3.42;;;1.20;;
74656;SDS011;63185;45.642;13.764;2024-01-16T09:06:00;2.20;;;1.05;;
74656;SDS011;63185;45.642;13.764;2024-01-16T09:08:26;3.17;;;1.58;;
74656;SDS011;63185;45.642;13.764;2024-01-16T09:10:52;4.57;;;1.55;;
74656;SDS011;63185;45.642;13.764;2024-01-16T09:13:18;3.72;;;1.38;;
74656;SDS011;63185;45.642;13.764;2024-01-16T09:15:45;2.35;;;1.30;;
74656;SDS011;63185;45.642;13.764;2024-01-16T09:18:15;4.28;;;1.40;;
74656;SDS011;63185;45.642;13.764;2024-01-16T09:20:41;3.17;;;1.20;;
74656;SDS011;63185;45.642;13.764;2024-01-16T09:23:08;3.38;;;1.20;;
74656;SDS011;63185;45.642;13.764;2024-01-16T09:25:36;3.05;;;1.27;;
74656;SDS011;63185;45.642;13.764;2024-01-16T09:28:02;3.00;;;1.40;;
74656;SDS011;63185;45.642;13.764;2024-01-16T09:30:28;4.78;;;1.50;;
74656;SDS011;63185;45.642;13.764;2024-01-16T09:32:53;4.53;;;1.30;;
74656;SDS011;63185;45.642;13.764;2024-01-16T09:35:23;6.72;;;1.40;;
74656;SDS011;63185;45.642;13.764;2024-01-16T09:37:48;4.63;;;1.20;;
74656;SDS011;63185;45.642;13.764;2024-01-16T09:40:14;2.97;;;1.30;;
74656;SDS011;63185;45.642;13.764;2024-01-16T09:42:40;3.13;;;1.33;;
74656;SDS011;63185;45.642;13.764;2024-01-16T09:45:06;2.60;;;1.23;;
74656;SDS011;63185;45.642;13.764;2024-01-16T09:47:33;3.63;;;1.38;;
74656;SDS011;63185;45.642;13.764;2024-01-16T09:49:59;2.90;;;1.50;;
74656;SDS011;63185;45.642;13.764;2024-01-16T09:52:28;4.80;;;1.67;;
74656;SDS011;63185;45.642;13.764;2024-01-16T09:54:54;3.35;;;1.58;;
74656;SDS011;63185;45.642;13.764;2024-01-16T09:57:20;4.38;;;1.63;;
74656;SDS011;63185;45.642;13.764;2024-01-16T09:59:51;2.72;;;1.38;;
74656;SDS011;63185;45.642;13.764;2024-01-16T10:02:17;2.17;;;1.02;;
74656;SDS011;63185;45.642;13.764;2024-01-16T10:04:46;2.30;;;0.95;;
74656;SDS011;63185;45.642;13.764;2024-01-16T10:07:12;2.60;;;1.20;;
74656;SDS011;63185;45.642;13.764;2024-01-16T10:09:40;1.73;;;0.90;;
74656;SDS011;63185;45.642;13.764;2024-01-16T10:12:06;3.50;;;1.23;;
74656;SDS011;63185;45.642;13.764;2024-01-16T10:14:33;4.10;;;1.42;;
74656;SDS011;63185;45.642;13.764;2024-01-16T10:17:02;2.22;;;1.20;;
74656;SDS011;63185;45.642;13.764;2024-01-16T10:19:48;2.75;;;1.23;;
74656;SDS011;63185;45.642;13.764;2024-01-16T10:22:23;3.38;;;1.10;;
74656;SDS011;63185;45.642;13.764;2024-01-16T10:25:11;2.45;;;1.30;;
74656;SDS011;63185;45.642;13.764;2024-01-16T10:27:38;4.57;;;1.33;;
74656;SDS011;63185;45.642;13.764;2024-01-16T10:30:05;3.10;;;1.13;;
74656;SDS011;63185;45.642;13.764;2024-01-16T10:32:33;3.65;;;0.98;;
74656;SDS011;63185;45.642;13.764;2024-01-16T10:35:03;4.38;;;1.67;;
74656;SDS011;63185;45.642;13.764;2024-01-16T10:40:21;6.80;;;1.40;;
74656;SDS011;63185;45.642;13.764;2024-01-16T10:42:58;2.85;;;1.35;;
74656;SDS011;63185;45.642;13.764;2024-01-16T10:45:24;3.10;;;1.20;;
74656;SDS011;63185;45.642;13.764;2024-01-16T10:50:33;3.17;;;1.20;;
74656;SDS011;63185;45.642;13.764;2024-01-16T10:53:04;2.10;;;1.02;;
74656;SDS011;63185;45.642;13.764;2024-01-16T10:55:30;2.50;;;1.00;;
74656;SDS011;63185;45.642;13.764;2024-01-16T10:58:01;2.55;;;1.10;;
74656;SDS011;63185;45.642;13.764;2024-01-16T11:00:28;4.10;;;1.30;;
74656;SDS011;63185;45.642;13.764;2024-01-16T11:03:01;2.25;;;1.05;;
74656;SDS011;63185;45.642;13.764;2024-01-16T11:05:31;2.17;;;1.10;;
74656;SDS011;63185;45.642;13.764;2024-01-16T11:10:26;3.67;;;1.20;;
74656;SDS011;63185;45.642;13.764;2024-01-16T11:12:53;2.42;;;1.17;;
74656;SDS011;63185;45.642;13.764;2024-01-16T11:15:20;2.80;;;1.27;;
74656;SDS011;63185;45.642;13.764;2024-01-16T11:17:47;3.33;;;1.40;;
74656;SDS011;63185;45.642;13.764;2024-01-16T11:20:15;3.35;;;1.52;;
74656;SDS011;63185;45.642;13.764;2024-01-16T11:22:44;2.55;;;1.25;;
74656;SDS011;63185;45.642;13.764;2024-01-16T11:25:10;2.22;;;1.10;;
74656;SDS011;63185;45.642;13.764;2024-01-16T11:27:38;2.60;;;1.20;;
74656;SDS011;63185;45.642;13.764;2024-01-16T11:30:05;3.03;;;1.17;;
74656;SDS011;63185;45.642;13.764;2024-01-16T11:32:32;4.07;;;1.23;;
74656;SDS011;63185;45.642;13.764;2024-01-16T11:35:00;3.38;;;1.30;;
74656;SDS011;63185;45.642;13.764;2024-01-16T11:37:30;2.50;;;1.20;;
74656;SDS011;63185;45.642;13.764;2024-01-16T11:42:42;2.97;;;1.42;;
74656;SDS011;63185;45.642;13.764;2024-01-16T12:00:03;5.32;;;1.48;;
74656;SDS011;63185;45.642;13.764;2024-01-16T12:02:49;3.17;;;1.50;;
74656;SDS011;63185;45.642;13.764;2024-01-16T12:05:26;2.72;;;1.10;;
74656;SDS011;63185;45.642;13.764;2024-01-16T12:07:52;4.18;;;1.20;;
74656;SDS011;63185;45.642;13.764;2024-01-16T12:10:20;2.88;;;1.33;;
74656;SDS011;63185;45.642;13.764;2024-01-16T12:12:50;3.42;;;1.70;;
74656;SDS011;63185;45.642;13.764;2024-01-16T12:15:17;6.25;;;1.90;;
74656;SDS011;63185;45.642;13.764;2024-01-16T12:20:22;11.48;;;2.08;;
74656;SDS011;63185;45.642;13.764;2024-01-16T12:22:53;3.85;;;1.40;;
74656;SDS011;63185;45.642;13.764;2024-01-16T12:25:22;5.90;;;2.05;;
74656;SDS011;63185;45.642;13.764;2024-01-16T12:27:56;3.70;;;1.73;;
74656;SDS011;63185;45.642;13.764;2024-01-16T12:30:29;3.83;;;1.52;;
74656;SDS011;63185;45.642;13.764;2024-01-16T12:33:09;5.55;;;1.40;;
74656;SDS011;63185;45.642;13.764;2024-01-16T12:35:39;2.45;;;1.25;;
74656;SDS011;63185;45.642;13.764;2024-01-16T12:38:06;2.90;;;1.35;;
74656;SDS011;63185;45.642;13.764;2024-01-16T12:40:41;2.85;;;1.33;;
74656;SDS011;63185;45.642;13.764;2024-01-16T12:43:12;2.63;;;1.10;;
74656;SDS011;63185;45.642;13.764;2024-01-16T12:45:38;7.70;;;1.20;;
74656;SDS011;63185;45.642;13.764;2024-01-16T12:48:04;2.90;;;1.50;;
74656;SDS011;63185;45.642;13.764;2024-01-16T12:50:30;3.13;;;1.42;;
74656;SDS011;63185;45.642;13.764;2024-01-16T12:53:00;5.78;;;1.40;;
74656;SDS011;63185;45.642;13.764;2024-01-16T12:55:27;4.88;;;1.20;;
74656;SDS011;63185;45.642;13.764;2024-01-16T13:00:37;4.47;;;1.33;;
74656;SDS011;63185;45.642;13.764;2024-01-16T13:03:04;3.05;;;1.30;;
74656;SDS011;63185;45.642;13.764;2024-01-16T13:05:30;4.22;;;0.95;;
74656;SDS011;63185;45.642;13.764;2024-01-16T13:08:00;2.88;;;1.13;;
74656;SDS011;63185;45.642;13.764;2024-01-16T13:10:29;2.90;;;1.30;;
74656;SDS011;63185;45.642;13.764;2024-01-16T13:13:17;2.20;;;1.27;;
74656;SDS011;63185;45.642;13.764;2024-01-16T13:15:46;3.30;;;1.38;;
74656;SDS011;63185;45.642;13.764;2024-01-16T13:20:44;4.82;;;1.27;;
74656;SDS011;63185;45.642;13.764;2024-01-16T13:23:12;3.05;;;1.30;;
74656;SDS011;63185;45.642;13.764;2024-01-16T13:25:39;5.80;;;1.67;;
74656;SDS011;63185;45.642;13.764;2024-01-16T13:28:05;2.42;;;1.20;;
74656;SDS011;63185;45.642;13.764;2024-01-16T13:30:32;3.10;;;0.95;;
74656;SDS011;63185;45.642;13.764;2024-01-16T13:32:58;2.53;;;1.38;;
74656;SDS011;63185;45.642;13.764;2024-01-16T13:35:24;3.13;;;1.50;;
74656;SDS011;63185;45.642;13.764;2024-01-16T13:37:49;2.33;;;1.20;;
74656;SDS011;63185;45.642;13.764;2024-01-16T13:40:16;2.58;;;1.20;;
74656;SDS011;63185;45.642;13.764;2024-01-16T13:42:44;3.33;;;1.30;;
74656;SDS011;63185;45.642;13.764;2024-01-16T13:45:10;3.13;;;1.40;;
74656;SDS011;63185;45.642;13.764;2024-01-16T13:47:38;2.78;;;1.55;;
74656;SDS011;63185;45.642;13.764;2024-01-16T13:50:05;3.38;;;1.70;;
74656;SDS011;63185;45.642;13.764;2024-01-16T13:52:32;3.47;;;1.65;;
74656;SDS011;63185;45.642;13.764;2024-01-16T13:54:59;3.80;;;1.63;;
74656;SDS011;63185;45.642;13.764;2024-01-16T13:57:28;4.90;;;1.80;;
74656;SDS011;63185;45.642;13.764;2024-01-16T13:59:53;4.15;;;1.88;;
74656;SDS011;63185;45.642;13.764;2024-01-16T14:02:19;5.57;;;1.58;;
74656;SDS011;63185;45.642;13.764;2024-01-16T14:04:44;6.85;;;2.05;;
74656;SDS011;63185;45.642;13.764;2024-01-16T14:07:10;5.60;;;2.10;;
74656;SDS011;63185;45.642;13.764;2024-01-16T14:09:36;5.07;;;1.95;;
74656;SDS011;63185;45.642;13.764;2024-01-16T14:12:02;6.65;;;1.80;;
74656;SDS011;63185;45.642;13.764;2024-01-16T14:14:27;4.68;;;1.85;;
74656;SDS011;63185;45.642;13.764;2024-01-16T14:16:53;6.85;;;1.77;;
74656;SDS011;63185;45.642;13.764;2024-01-16T14:19:20;6.25;;;1.90;;
74656;SDS011;63185;45.642;13.764;2024-01-16T14:21:45;8.75;;;1.70;;
74656;SDS011;63185;45.642;13.764;2024-01-16T14:24:13;3.63;;;1.75;;
74656;SDS011;63185;45.642;13.764;2024-01-16T14:26:41;4.45;;;2.08;;
74656;SDS011;63185;45.642;13.764;2024-01-16T14:29:09;6.60;;;1.83;;
74656;SDS011;63185;45.642;13.764;2024-01-16T14:31:35;5.30;;;2.35;;
74656;SDS011;63185;45.642;13.764;2024-01-16T14:34:01;3.67;;;2.00;;
74656;SDS011;63185;45.642;13.764;2024-01-16T14:36:26;3.88;;;1.60;;
74656;SDS011;63185;45.642;13.764;2024-01-16T14:38:52;5.68;;;2.15;;
74656;SDS011;63185;45.642;13.764;2024-01-16T14:41:18;3.25;;;1.60;;
74656;SDS011;63185;45.642;13.764;2024-01-16T14:43:44;3.60;;;1.77;;
74656;SDS011;63185;45.642;13.764;2024-01-16T14:46:09;4.97;;;2.10;;
74656;SDS011;63185;45.642;13.764;2024-01-16T14:48:43;4.80;;;2.00;;
74656;SDS011;63185;45.642;13.764;2024-01-16T14:51:09;3.33;;;1.77;;
74656;SDS011;63185;45.642;13.764;2024-01-16T14:53:35;3.85;;;1.75;;
74656;SDS011;63185;45.642;13.764;2024-01-16T14:56:01;4.78;;;1.65;;
74656;SDS011;63185;45.642;13.764;2024-01-16T14:58:28;5.13;;;1.90;;
74656;SDS011;63185;45.642;13.764;2024-01-16T15:00:54;8.73;;;1.90;;
74656;SDS011;63185;45.642;13.764;2024-01-16T15:03:21;3.83;;;1.80;;